sensor_id;sensor_type;location;lat;lon;timestamp;temperature;humidity
33460;DHT22;19795;53.160;6.612;2022-09-09T03:59:21;14.20;99.90
33460;DHT22;19795;53.160;6.612;2022-09-09T04:01:48;14.10;99.90
33460;DHT22;19795;53.160;6.612;2022-09-09T04:04:13;14.10;99.90
33460;DHT22;19795;53.160;6.612;2022-09-09T04:06:39;14.20;99.90
33460;DHT22;19795;53.160;6.612;2022-09-09T04:09:05;14.20;99.90
33460;DHT22;19795;53.160;6.612;2022-09-09T04:11:30;14.20;99.90
33460;DHT22;19795;53.160;6.612;2022-09-09T04:13:56;14.20;99.90
33460;DHT22;19795;53.160;6.612;2022-09-09T04:16:22;14.20;99.90
33460;DHT22;19795;53.160;6.612;2022-09-09T04:18:47;14.20;99.90
33460;DHT22;19795;53.160;6.612;2022-09-09T04:21:13;14.30;99.90
33460;DHT22;19795;53.160;6.612;2022-09-09T04:23:40;14.30;99.90
33460;DHT22;19795;53.160;6.612;2022-09-09T04:26:06;14.30;99.90
33460;DHT22;19795;53.160;6.612;2022-09-09T04:28:33;14.30;99.90
33460;DHT22;19795;53.160;6.612;2022-09-09T04:31:14;14.30;99.90
33460;DHT22;19795;53.160;6.612;2022-09-09T04:33:40;14.30;99.90
33460;DHT22;19795;53.160;6.612;2022-09-09T04:36:06;14.20;99.90
33460;DHT22;19795;53.160;6.612;2022-09-09T04:38:32;14.20;99.90
33460;DHT22;19795;53.160;6.612;2022-09-09T04:40:58;14.20;99.90
33460;DHT22;19795;53.160;6.612;2022-09-09T04:43:24;14.10;99.90
33460;DHT22;19795;53.160;6.612;2022-09-09T04:45:51;14.20;99.90
33460;DHT22;19795;53.160;6.612;2022-09-09T04:48:20;14.20;99.90
33460;DHT22;19795;53.160;6.612;2022-09-09T04:51:14;14.10;99.90
33460;DHT22;19795;53.160;6.612;2022-09-09T04:53:42;14.10;99.90
33460;DHT22;19795;53.160;6.612;2022-09-09T04:56:14;14.10;99.90
33460;DHT22;19795;53.160;6.612;2022-09-09T04:58:40;14.00;99.90
33460;DHT22;19795;53.160;6.612;2022-09-09T05:01:27;14.00;99.90
33460;DHT22;19795;53.160;6.612;2022-09-09T05:03:53;14.00;99.90
33460;DHT22;19795;53.160;6.612;2022-09-09T05:06:20;14.00;99.90
33460;DHT22;19795;53.160;6.612;2022-09-09T05:08:46;14.00;99.90
33460;DHT22;19795;53.160;6.612;2022-09-09T05:11:21;14.00;99.90
33460;DHT22;19795;53.160;6.612;2022-09-09T05:13:47;13.90;99.90
33460;DHT22;19795;53.160;6.612;2022-09-09T05:16:14;14.00;99.90
33460;DHT22;19795;53.160;6.612;2022-09-09T05:18:40;13.90;99.90
33460;DHT22;19795;53.160;6.612;2022-09-09T05:21:08;13.90;99.90
33460;DHT22;19795;53.160;6.612;2022-09-09T05:23:34;13.90;99.90
33460;DHT22;19795;53.160;6.612;2022-09-09T05:26:01;13.90;99.90
33460;DHT22;19795;53.160;6.612;2022-09-09T05:28:27;13.90;99.90
33460;DHT22;19795;53.160;6.612;2022-09-09T05:31:01;13.80;99.90
33460;DHT22;19795;53.160;6.612;2022-09-09T05:33:30;13.90;99.90
33460;DHT22;19795;53.160;6.612;2022-09-09T05:35:58;13.90;99.90
33460;DHT22;19795;53.160;6.612;2022-09-09T05:38:23;13.90;99.90
33460;DHT22;19795;53.160;6.612;2022-09-09T05:40:53;13.90;99.90
33460;DHT22;19795;53.160;6.612;2022-09-09T05:43:19;13.90;99.90
33460;DHT22;19795;53.160;6.612;2022-09-09T05:45:46;13.90;99.90
33460;DHT22;19795;53.160;6.612;2022-09-09T05:48:15;13.90;99.90
33460;DHT22;19795;53.160;6.612;2022-09-09T05:50:42;14.00;99.90
33460;DHT22;19795;53.160;6.612;2022-09-09T05:53:08;14.00;99.90
33460;DHT22;19795;53.160;6.612;2022-09-09T05:55:34;14.00;99.90
33460;DHT22;19795;53.160;6.612;2022-09-09T05:58:00;14.00;99.90
33460;DHT22;19795;53.160;6.612;2022-09-09T06:00:26;13.90;99.90
33460;DHT22;19795;53.160;6.612;2022-09-09T06:02:52;14.00;99.90
33460;DHT22;19795;53.160;6.612;2022-09-09T06:05:18;14.10;99.90
33460;DHT22;19795;53.160;6.612;2022-09-09T06:07:44;14.00;99.90
33460;DHT22;19795;53.160;6.612;2022-09-09T06:10:11;14.00;99.90
33460;DHT22;19795;53.160;6.612;2022-09-09T06:12:39;14.00;99.90
33460;DHT22;19795;53.160;6.612;2022-09-09T06:15:05;14.00;99.90
33460;DHT22;19795;53.160;6.612;2022-09-09T06:17:31;14.00;99.90
33460;DHT22;19795;53.160;6.612;2022-09-09T06:19:57;14.00;99.90
33460;DHT22;19795;53.160;6.612;2022-09-09T06:22:23;14.10;99.90
33460;DHT22;19795;53.160;6.612;2022-09-09T06:24:48;14.00;99.90
33460;DHT22;19795;53.160;6.612;2022-09-09T06:27:14;14.10;99.90
33460;DHT22;19795;53.160;6.612;2022-09-09T06:29:40;14.10;99.90
33460;DHT22;19795;53.160;6.612;2022-09-09T06:32:05;14.00;99.90
33460;DHT22;19795;53.160;6.612;2022-09-09T06:34:34;14.10;99.90
33460;DHT22;19795;53.160;6.612;2022-09-09T06:37:00;14.10;99.90
33460;DHT22;19795;53.160;6.612;2022-09-09T06:39:26;14.20;99.90
33460;DHT22;19795;53.160;6.612;2022-09-09T06:41:52;14.30;99.90
33460;DHT22;19795;53.160;6.612;2022-09-09T06:44:19;14.40;99.90
33460;DHT22;19795;53.160;6.612;2022-09-09T06:46:45;14.50;99.90
33460;DHT22;19795;53.160;6.612;2022-09-09T06:49:16;14.60;99.90
33460;DHT22;19795;53.160;6.612;2022-09-09T06:51:41;14.60;99.90
33460;DHT22;19795;53.160;6.612;2022-09-09T06:54:11;14.70;99.90
33460;DHT22;19795;53.160;6.612;2022-09-09T06:56:39;14.80;99.90
33460;DHT22;19795;53.160;6.612;2022-09-09T06:59:08;14.90;99.90
33460;DHT22;19795;53.160;6.612;2022-09-09T07:01:42;14.80;99.90
33460;DHT22;19795;53.160;6.612;2022-09-09T07:04:12;14.70;99.90
33460;DHT22;19795;53.160;6.612;2022-09-09T07:06:42;14.70;99.90
33460;DHT22;19795;53.160;6.612;2022-09-09T07:09:13;14.80;99.90
33460;DHT22;19795;53.160;6.612;2022-09-09T07:11:44;14.80;99.90
33460;DHT22;19795;53.160;6.612;2022-09-09T07:14:11;14.90;99.90
33460;DHT22;19795;53.160;6.612;2022-09-09T07:16:41;14.90;99.90
33460;DHT22;19795;53.160;6.612;2022-09-09T07:19:07;14.90;99.90
33460;DHT22;19795;53.160;6.612;2022-09-09T07:21:33;14.90;99.90
33460;DHT22;19795;53.160;6.612;2022-09-09T07:24:00;15.00;99.90
33460;DHT22;19795;53.160;6.612;2022-09-09T07:26:29;15.10;99.90
33460;DHT22;19795;53.160;6.612;2022-09-09T07:28:56;15.30;99.90
33460;DHT22;19795;53.160;6.612;2022-09-09T07:31:33;15.40;99.90
33460;DHT22;19795;53.160;6.612;2022-09-09T07:34:00;15.50;99.90
33460;DHT22;19795;53.160;6.612;2022-09-09T07:36:32;15.80;99.90
33460;DHT22;19795;53.160;6.612;2022-09-09T07:39:01;16.00;99.90
33460;DHT22;19795;53.160;6.612;2022-09-09T07:41:31;16.00;99.90
33460;DHT22;19795;53.160;6.612;2022-09-09T07:43:58;15.90;99.90
33460;DHT22;19795;53.160;6.612;2022-09-09T07:46:26;15.90;99.90
33460;DHT22;19795;53.160;6.612;2022-09-09T07:48:55;16.00;99.90
33460;DHT22;19795;53.160;6.612;2022-09-09T07:51:27;16.30;99.90
33460;DHT22;19795;53.160;6.612;2022-09-09T07:53:54;16.40;99.90
33460;DHT22;19795;53.160;6.612;2022-09-09T07:56:21;16.50;99.90
33460;DHT22;19795;53.160;6.612;2022-09-09T07:58:51;16.60;99.90
33460;DHT22;19795;53.160;6.612;2022-09-09T08:03:45;16.70;99.90
33460;DHT22;19795;53.160;6.612;2022-09-09T08:06:12;16.80;99.90
33460;DHT22;19795;53.160;6.612;2022-09-09T08:08:39;17.00;99.90
33460;DHT22;19795;53.160;6.612;2022-09-09T08:11:12;17.40;99.90
33460;DHT22;19795;53.160;6.612;2022-09-09T08:13:41;18.20;99.90
33460;DHT22;19795;53.160;6.612;2022-09-09T08:16:13;18.50;99.90
33460;DHT22;19795;53.160;6.612;2022-09-09T08:18:40;18.50;99.90
33460;DHT22;19795;53.160;6.612;2022-09-09T08:23:32;19.20;99.90
33460;DHT22;19795;53.160;6.612;2022-09-09T08:26:08;19.40;99.90
33460;DHT22;19795;53.160;6.612;2022-09-09T08:28:35;19.70;99.90
33460;DHT22;19795;53.160;6.612;2022-09-09T08:31:09;19.80;99.90
33460;DHT22;19795;53.160;6.612;2022-09-09T08:33:35;19.60;99.90
33460;DHT22;19795;53.160;6.612;2022-09-09T08:36:04;19.40;99.90
33460;DHT22;19795;53.160;6.612;2022-09-09T08:38:31;19.10;99.90
33460;DHT22;19795;53.160;6.612;2022-09-09T08:44:03;18.30;99.90
33460;DHT22;19795;53.160;6.612;2022-09-09T08:46:50;18.20;99.90
33460;DHT22;19795;53.160;6.612;2022-09-09T08:51:55;18.10;99.90
33460;DHT22;19795;53.160;6.612;2022-09-09T08:54:23;18.20;99.90
33460;DHT22;19795;53.160;6.612;2022-09-09T08:56:49;18.40;99.90
33460;DHT22;19795;53.160;6.612;2022-09-09T08:59:17;18.50;99.90
33460;DHT22;19795;53.160;6.612;2022-09-09T09:02:00;18.80;99.90
33460;DHT22;19795;53.160;6.612;2022-09-09T09:12:44;19.00;99.90
33460;DHT22;19795;53.160;6.612;2022-09-09T09:15:24;19.00;99.90
33460;DHT22;19795;53.160;6.612;2022-09-09T09:17:51;19.30;99.90
33460;DHT22;19795;53.160;6.612;2022-09-09T09:20:23;19.60;99.90
33460;DHT22;19795;53.160;6.612;2022-09-09T09:22:52;19.60;99.90
33460;DHT22;19795;53.160;6.612;2022-09-09T09:25:23;19.40;99.90
33460;DHT22;19795;53.160;6.612;2022-09-09T09:28:18;19.50;99.90
33460;DHT22;19795;53.160;6.612;2022-09-09T09:30:56;19.30;99.90
33460;DHT22;19795;53.160;6.612;2022-09-09T09:33:49;19.00;99.90
33460;DHT22;19795;53.160;6.612;2022-09-09T09:36:15;19.00;99.90
33460;DHT22;19795;53.160;6.612;2022-09-09T09:38:56;18.90;99.90
33460;DHT22;19795;53.160;6.612;2022-09-09T09:41:54;18.80;99.90
33460;DHT22;19795;53.160;6.612;2022-09-09T09:44:30;18.80;99.90
33460;DHT22;19795;53.160;6.612;2022-09-09T09:47:14;18.70;99.90
33460;DHT22;19795;53.160;6.612;2022-09-09T09:49:58;18.60;99.90
33460;DHT22;19795;53.160;6.612;2022-09-09T09:52:27;18.80;99.90
33460;DHT22;19795;53.160;6.612;2022-09-09T09:54:56;18.90;99.90
33460;DHT22;19795;53.160;6.612;2022-09-09T09:57:30;18.90;99.90
33460;DHT22;19795;53.160;6.612;2022-09-09T10:02:42;19.10;99.90
33460;DHT22;19795;53.160;6.612;2022-09-09T10:05:18;19.20;99.90
33460;DHT22;19795;53.160;6.612;2022-09-09T10:07:45;19.80;99.90
33460;DHT22;19795;53.160;6.612;2022-09-09T10:32:49;20.60;99.90
33460;DHT22;19795;53.160;6.612;2022-09-09T10:35:35;20.20;99.90
33460;DHT22;19795;53.160;6.612;2022-09-09T10:38:16;20.60;99.90
33460;DHT22;19795;53.160;6.612;2022-09-09T10:49:19;19.60;99.90
33460;DHT22;19795;53.160;6.612;2022-09-09T10:52:07;19.80;99.90
33460;DHT22;19795;53.160;6.612;2022-09-09T10:57:31;21.80;99.90
33460;DHT22;19795;53.160;6.612;2022-09-09T11:00:10;21.90;99.90
33460;DHT22;19795;53.160;6.612;2022-09-09T11:02:41;21.10;99.90
33460;DHT22;19795;53.160;6.612;2022-09-09T11:05:20;20.90;99.90
33460;DHT22;19795;53.160;6.612;2022-09-09T11:08:03;20.90;99.90
33460;DHT22;19795;53.160;6.612;2022-09-09T11:13:18;20.80;99.90
33460;DHT22;19795;53.160;6.612;2022-09-09T11:15:49;20.50;99.90
33460;DHT22;19795;53.160;6.612;2022-09-09T11:18:21;20.40;99.90
33460;DHT22;19795;53.160;6.612;2022-09-09T11:20:54;22.30;99.90
33460;DHT22;19795;53.160;6.612;2022-09-09T11:23:27;24.00;99.90
33460;DHT22;19795;53.160;6.612;2022-09-09T11:26:00;24.10;99.90
33460;DHT22;19795;53.160;6.612;2022-09-09T11:29:10;23.10;99.90
33460;DHT22;19795;53.160;6.612;2022-09-09T11:31:46;22.70;99.90
33460;DHT22;19795;53.160;6.612;2022-09-09T11:34:25;23.50;99.90
33460;DHT22;19795;53.160;6.612;2022-09-09T11:44:37;22.20;99.90
33460;DHT22;19795;53.160;6.612;2022-09-09T11:47:03;21.40;99.90
33460;DHT22;19795;53.160;6.612;2022-09-09T11:49:42;21.60;99.90
33460;DHT22;19795;53.160;6.612;2022-09-09T11:52:38;21.80;99.90
33460;DHT22;19795;53.160;6.612;2022-09-09T11:55:25;21.90;99.90
33460;DHT22;19795;53.160;6.612;2022-09-09T11:58:16;22.90;99.90
33460;DHT22;19795;53.160;6.612;2022-09-09T12:00:46;22.40;99.90
33460;DHT22;19795;53.160;6.612;2022-09-09T12:03:33;22.30;99.90
33460;DHT22;19795;53.160;6.612;2022-09-09T12:06:19;22.60;99.90
33460;DHT22;19795;53.160;6.612;2022-09-09T12:08:57;23.40;99.90
33460;DHT22;19795;53.160;6.612;2022-09-09T12:11:30;23.50;99.90
33460;DHT22;19795;53.160;6.612;2022-09-09T12:13:59;24.20;99.90
33460;DHT22;19795;53.160;6.612;2022-09-09T12:16:33;25.10;99.90
33460;DHT22;19795;53.160;6.612;2022-09-09T12:22:16;23.60;99.90
33460;DHT22;19795;53.160;6.612;2022-09-09T12:27:55;23.20;99.90
33460;DHT22;19795;53.160;6.612;2022-09-09T12:30:29;22.70;99.90
33460;DHT22;19795;53.160;6.612;2022-09-09T12:33:11;21.90;99.90
33460;DHT22;19795;53.160;6.612;2022-09-09T12:35:43;21.30;99.90
33460;DHT22;19795;53.160;6.612;2022-09-09T12:38:19;21.00;99.90
33460;DHT22;19795;53.160;6.612;2022-09-09T12:40:55;20.90;99.90
33460;DHT22;19795;53.160;6.612;2022-09-09T12:43:24;21.40;99.90
33460;DHT22;19795;53.160;6.612;2022-09-09T12:45:53;21.80;99.90
33460;DHT22;19795;53.160;6.612;2022-09-09T12:48:33;21.90;99.90
33460;DHT22;19795;53.160;6.612;2022-09-09T12:51:00;22.00;99.90
33460;DHT22;19795;53.160;6.612;2022-09-09T12:53:37;21.90;99.90
33460;DHT22;19795;53.160;6.612;2022-09-09T12:56:07;22.00;99.90
33460;DHT22;19795;53.160;6.612;2022-09-09T12:58:35;22.60;99.90
33460;DHT22;19795;53.160;6.612;2022-09-09T13:01:03;23.30;99.90
33460;DHT22;19795;53.160;6.612;2022-09-09T13:03:31;23.30;99.90
33460;DHT22;19795;53.160;6.612;2022-09-09T13:06:18;23.60;99.90
33460;DHT22;19795;53.160;6.612;2022-09-09T13:08:44;24.40;99.90
33460;DHT22;19795;53.160;6.612;2022-09-09T13:11:14;24.40;99.90
33460;DHT22;19795;53.160;6.612;2022-09-09T13:13:43;23.50;99.90
33460;DHT22;19795;53.160;6.612;2022-09-09T13:16:25;23.40;99.90
33460;DHT22;19795;53.160;6.612;2022-09-09T13:18:52;24.20;99.90
33460;DHT22;19795;53.160;6.612;2022-09-09T13:21:18;24.30;99.90
33460;DHT22;19795;53.160;6.612;2022-09-09T13:23:49;23.40;99.90
33460;DHT22;19795;53.160;6.612;2022-09-09T13:26:26;22.50;99.90
33460;DHT22;19795;53.160;6.612;2022-09-09T13:28:53;22.00;99.90
33460;DHT22;19795;53.160;6.612;2022-09-09T13:31:37;21.70;99.90
33460;DHT22;19795;53.160;6.612;2022-09-09T13:34:32;21.50;99.90
33460;DHT22;19795;53.160;6.612;2022-09-09T13:37:03;21.20;99.90
33460;DHT22;19795;53.160;6.612;2022-09-09T13:39:33;20.80;99.90
33460;DHT22;19795;53.160;6.612;2022-09-09T13:42:00;20.40;99.90
33460;DHT22;19795;53.160;6.612;2022-09-09T13:44:35;20.30;99.90
33460;DHT22;19795;53.160;6.612;2022-09-09T13:47:05;20.10;99.90
33460;DHT22;19795;53.160;6.612;2022-09-09T13:49:31;20.00;99.90
33460;DHT22;19795;53.160;6.612;2022-09-09T13:52:16;20.20;99.90
33460;DHT22;19795;53.160;6.612;2022-09-09T13:54:42;20.80;99.90
33460;DHT22;19795;53.160;6.612;2022-09-09T13:57:26;21.20;99.90
33460;DHT22;19795;53.160;6.612;2022-09-09T13:59:53;21.30;99.90
33460;DHT22;19795;53.160;6.612;2022-09-09T14:02:22;21.30;99.90
33460;DHT22;19795;53.160;6.612;2022-09-09T14:04:48;21.00;99.90
33460;DHT22;19795;53.160;6.612;2022-09-09T14:07:17;20.90;99.90
33460;DHT22;19795;53.160;6.612;2022-09-09T14:09:44;20.50;99.90
33460;DHT22;19795;53.160;6.612;2022-09-09T14:12:14;20.10;99.90
33460;DHT22;19795;53.160;6.612;2022-09-09T14:14:40;19.80;99.90
33460;DHT22;19795;53.160;6.612;2022-09-09T14:17:07;19.70;99.90
33460;DHT22;19795;53.160;6.612;2022-09-09T14:19:33;19.70;99.90
33460;DHT22;19795;53.160;6.612;2022-09-09T14:21:59;19.90;99.90
33460;DHT22;19795;53.160;6.612;2022-09-09T14:24:25;20.20;99.90
33460;DHT22;19795;53.160;6.612;2022-09-09T14:26:51;20.50;99.90
33460;DHT22;19795;53.160;6.612;2022-09-09T14:29:17;20.60;99.90
33460;DHT22;19795;53.160;6.612;2022-09-09T14:31:42;20.30;99.90
33460;DHT22;19795;53.160;6.612;2022-09-09T14:34:08;20.00;99.90
33460;DHT22;19795;53.160;6.612;2022-09-09T14:36:36;19.70;99.90
33460;DHT22;19795;53.160;6.612;2022-09-09T14:39:03;19.50;99.90
33460;DHT22;19795;53.160;6.612;2022-09-09T14:41:29;19.20;99.90
33460;DHT22;19795;53.160;6.612;2022-09-09T14:43:55;18.80;99.90
33460;DHT22;19795;53.160;6.612;2022-09-09T14:46:21;18.20;99.90
33460;DHT22;19795;53.160;6.612;2022-09-09T14:48:47;17.90;99.90
33460;DHT22;19795;53.160;6.612;2022-09-09T14:51:22;17.60;99.90
33460;DHT22;19795;53.160;6.612;2022-09-09T14:53:51;17.60;99.90
33460;DHT22;19795;53.160;6.612;2022-09-09T14:56:20;17.70;99.90
33460;DHT22;19795;53.160;6.612;2022-09-09T14:58:47;18.00;99.90
33460;DHT22;19795;53.160;6.612;2022-09-09T15:01:18;18.30;99.90
33460;DHT22;19795;53.160;6.612;2022-09-09T15:06:18;19.10;99.90
33460;DHT22;19795;53.160;6.612;2022-09-09T15:08:45;19.30;99.90
33460;DHT22;19795;53.160;6.612;2022-09-09T15:11:12;19.60;99.90
33460;DHT22;19795;53.160;6.612;2022-09-09T15:13:40;19.70;99.90
33460;DHT22;19795;53.160;6.612;2022-09-09T15:16:10;19.50;99.90
33460;DHT22;19795;53.160;6.612;2022-09-09T15:18:36;19.50;99.90
33460;DHT22;19795;53.160;6.612;2022-09-09T15:21:05;19.50;99.90
33460;DHT22;19795;53.160;6.612;2022-09-09T15:23:35;19.50;99.90
33460;DHT22;19795;53.160;6.612;2022-09-09T15:26:01;19.50;99.90
33460;DHT22;19795;53.160;6.612;2022-09-09T15:28:28;19.40;99.90
33460;DHT22;19795;53.160;6.612;2022-09-09T15:30:54;19.40;99.90
33460;DHT22;19795;53.160;6.612;2022-09-09T15:33:21;19.50;99.90
33460;DHT22;19795;53.160;6.612;2022-09-09T15:35:47;19.70;99.90
33460;DHT22;19795;53.160;6.612;2022-09-09T15:38:15;19.90;99.90
33460;DHT22;19795;53.160;6.612;2022-09-09T15:40:42;19.90;99.90
33460;DHT22;19795;53.160;6.612;2022-09-09T15:43:08;19.70;99.90
33460;DHT22;19795;53.160;6.612;2022-09-09T15:45:39;19.60;99.90
33460;DHT22;19795;53.160;6.612;2022-09-09T15:48:05;19.60;99.90
33460;DHT22;19795;53.160;6.612;2022-09-09T15:50:30;19.50;99.90
33460;DHT22;19795;53.160;6.612;2022-09-09T15:52:57;19.40;99.90
33460;DHT22;19795;53.160;6.612;2022-09-09T15:55:22;19.10;99.90
33460;DHT22;19795;53.160;6.612;2022-09-09T15:58:12;18.90;99.90
33460;DHT22;19795;53.160;6.612;2022-09-09T16:00:37;18.70;99.90
33460;DHT22;19795;53.160;6.612;2022-09-09T16:03:03;18.70;99.90
33460;DHT22;19795;53.160;6.612;2022-09-09T16:05:29;18.60;99.90
33460;DHT22;19795;53.160;6.612;2022-09-09T16:07:55;18.40;99.90
33460;DHT22;19795;53.160;6.612;2022-09-09T16:10:20;18.20;99.90
33460;DHT22;19795;53.160;6.612;2022-09-09T16:12:46;18.10;99.90
33460;DHT22;19795;53.160;6.612;2022-09-09T16:15:12;17.90;99.90
33460;DHT22;19795;53.160;6.612;2022-09-09T16:17:38;17.90;99.90
33460;DHT22;19795;53.160;6.612;2022-09-09T16:20:04;17.90;99.90
33460;DHT22;19795;53.160;6.612;2022-09-09T16:22:32;17.90;99.90
33460;DHT22;19795;53.160;6.612;2022-09-09T16:24:58;18.00;99.90
33460;DHT22;19795;53.160;6.612;2022-09-09T16:27:23;17.90;99.90
33460;DHT22;19795;53.160;6.612;2022-09-09T16:29:49;17.80;99.90
33460;DHT22;19795;53.160;6.612;2022-09-09T16:32:15;17.70;99.90
33460;DHT22;19795;53.160;6.612;2022-09-09T16:34:40;17.50;99.90
33460;DHT22;19795;53.160;6.612;2022-09-09T16:37:07;17.40;99.90
33460;DHT22;19795;53.160;6.612;2022-09-09T16:39:33;17.30;99.90
33460;DHT22;19795;53.160;6.612;2022-09-09T16:41:58;17.30;99.90
33460;DHT22;19795;53.160;6.612;2022-09-09T16:44:25;17.20;99.90
33460;DHT22;19795;53.160;6.612;2022-09-09T16:46:51;17.10;99.90
33460;DHT22;19795;53.160;6.612;2022-09-09T16:49:17;17.10;99.90
33460;DHT22;19795;53.160;6.612;2022-09-09T16:51:46;17.00;99.90
33460;DHT22;19795;53.160;6.612;2022-09-09T16:54:16;17.00;99.90
33460;DHT22;19795;53.160;6.612;2022-09-09T16:56:44;16.90;99.90
33460;DHT22;19795;53.160;6.612;2022-09-09T16:59:13;16.90;99.90
33460;DHT22;19795;53.160;6.612;2022-09-09T17:01:40;16.90;99.90
33460;DHT22;19795;53.160;6.612;2022-09-09T17:04:12;16.90;99.90
33460;DHT22;19795;53.160;6.612;2022-09-09T17:06:39;16.90;99.90
33460;DHT22;19795;53.160;6.612;2022-09-09T17:09:09;16.90;99.90
33460;DHT22;19795;53.160;6.612;2022-09-09T17:11:36;16.90;99.90
33460;DHT22;19795;53.160;6.612;2022-09-09T17:14:02;17.00;99.90
33460;DHT22;19795;53.160;6.612;2022-09-09T17:16:30;17.00;99.90
33460;DHT22;19795;53.160;6.612;2022-09-09T17:18:57;16.90;99.90
33460;DHT22;19795;53.160;6.612;2022-09-09T17:21:26;16.90;99.90
33460;DHT22;19795;53.160;6.612;2022-09-09T17:23:53;16.90;99.90
33460;DHT22;19795;53.160;6.612;2022-09-09T17:26:22;16.80;99.90
33460;DHT22;19795;53.160;6.612;2022-09-09T17:28:48;16.80;99.90
33460;DHT22;19795;53.160;6.612;2022-09-09T17:31:16;16.70;99.90
33460;DHT22;19795;53.160;6.612;2022-09-09T17:33:48;16.70;99.90
33460;DHT22;19795;53.160;6.612;2022-09-09T17:36:22;16.80;99.90
33460;DHT22;19795;53.160;6.612;2022-09-09T17:38:48;16.80;99.90
33460;DHT22;19795;53.160;6.612;2022-09-09T17:41:24;16.80;99.90
33460;DHT22;19795;53.160;6.612;2022-09-09T17:43:50;16.80;99.90
33460;DHT22;19795;53.160;6.612;2022-09-09T17:48:45;16.80;99.90
33460;DHT22;19795;53.160;6.612;2022-09-09T17:51:22;16.70;99.90
33460;DHT22;19795;53.160;6.612;2022-09-09T17:53:54;16.70;99.90
33460;DHT22;19795;53.160;6.612;2022-09-09T17:56:22;16.70;99.90
33460;DHT22;19795;53.160;6.612;2022-09-09T17:58:49;16.70;99.90
33460;DHT22;19795;53.160;6.612;2022-09-09T18:01:17;16.70;99.90
33460;DHT22;19795;53.160;6.612;2022-09-09T18:03:44;16.70;99.90
33460;DHT22;19795;53.160;6.612;2022-09-09T18:06:14;16.70;99.90
33460;DHT22;19795;53.160;6.612;2022-09-09T18:08:51;16.70;99.90
33460;DHT22;19795;53.160;6.612;2022-09-09T18:11:19;16.60;99.90
33460;DHT22;19795;53.160;6.612;2022-09-09T18:13:54;16.70;99.90
33460;DHT22;19795;53.160;6.612;2022-09-09T18:16:21;16.60;99.90
33460;DHT22;19795;53.160;6.612;2022-09-09T18:18:47;16.60;99.90
33460;DHT22;19795;53.160;6.612;2022-09-09T18:21:15;16.60;99.90
33460;DHT22;19795;53.160;6.612;2022-09-09T18:23:42;16.60;99.90
33460;DHT22;19795;53.160;6.612;2022-09-09T18:26:09;16.50;99.90
33460;DHT22;19795;53.160;6.612;2022-09-09T18:28:39;16.50;99.90
33460;DHT22;19795;53.160;6.612;2022-09-09T18:31:10;16.40;99.90
33460;DHT22;19795;53.160;6.612;2022-09-09T18:33:37;16.40;99.90
33460;DHT22;19795;53.160;6.612;2022-09-09T18:36:10;16.40;99.90
33460;DHT22;19795;53.160;6.612;2022-09-09T18:38:37;16.30;99.90
33460;DHT22;19795;53.160;6.612;2022-09-09T18:41:21;16.30;99.90
33460;DHT22;19795;53.160;6.612;2022-09-09T18:43:49;16.30;99.90
33460;DHT22;19795;53.160;6.612;2022-09-09T18:46:15;16.30;99.90
33460;DHT22;19795;53.160;6.612;2022-09-09T18:48:43;16.30;99.90
33460;DHT22;19795;53.160;6.612;2022-09-09T18:51:11;16.30;99.90
33460;DHT22;19795;53.160;6.612;2022-09-09T18:53:37;16.30;99.90
33460;DHT22;19795;53.160;6.612;2022-09-09T18:56:05;16.30;99.90
33460;DHT22;19795;53.160;6.612;2022-09-09T18:58:31;16.30;99.90
33460;DHT22;19795;53.160;6.612;2022-09-09T19:00:58;16.20;99.90
33460;DHT22;19795;53.160;6.612;2022-09-09T19:03:28;16.20;99.90
33460;DHT22;19795;53.160;6.612;2022-09-09T19:06:04;16.30;99.90
33460;DHT22;19795;53.160;6.612;2022-09-09T19:08:33;16.30;99.90
33460;DHT22;19795;53.160;6.612;2022-09-09T19:11:04;16.40;99.90
33460;DHT22;19795;53.160;6.612;2022-09-09T19:13:31;16.40;99.90
33460;DHT22;19795;53.160;6.612;2022-09-09T19:18:32;16.20;99.90
33460;DHT22;19795;53.160;6.612;2022-09-09T19:21:21;16.20;99.90
33460;DHT22;19795;53.160;6.612;2022-09-09T19:23:52;16.20;99.90
33460;DHT22;19795;53.160;6.612;2022-09-09T19:26:22;16.10;99.90
33460;DHT22;19795;53.160;6.612;2022-09-09T19:28:48;16.10;99.90
33460;DHT22;19795;53.160;6.612;2022-09-09T19:31:17;16.00;99.90
33460;DHT22;19795;53.160;6.612;2022-09-09T19:33:44;15.90;99.90
33460;DHT22;19795;53.160;6.612;2022-09-09T19:36:13;15.90;99.90
33460;DHT22;19795;53.160;6.612;2022-09-09T19:38:42;15.90;99.90
33460;DHT22;19795;53.160;6.612;2022-09-09T19:41:11;15.80;99.90
33460;DHT22;19795;53.160;6.612;2022-09-09T19:43:38;15.80;99.90
33460;DHT22;19795;53.160;6.612;2022-09-09T19:46:07;15.80;99.90
33460;DHT22;19795;53.160;6.612;2022-09-09T19:48:37;15.80;99.90
33460;DHT22;19795;53.160;6.612;2022-09-09T19:51:12;15.90;99.90
33460;DHT22;19795;53.160;6.612;2022-09-09T19:53:41;15.80;99.90
33460;DHT22;19795;53.160;6.612;2022-09-09T19:56:07;15.80;99.90
33460;DHT22;19795;53.160;6.612;2022-09-09T19:58:38;15.80;99.90
33460;DHT22;19795;53.160;6.612;2022-09-09T20:01:15;15.90;99.90
33460;DHT22;19795;53.160;6.612;2022-09-09T20:03:43;15.90;99.90
33460;DHT22;19795;53.160;6.612;2022-09-09T20:06:11;15.80;99.90
33460;DHT22;19795;53.160;6.612;2022-09-09T20:08:38;15.80;99.90
33460;DHT22;19795;53.160;6.612;2022-09-09T20:11:05;15.80;99.90
33460;DHT22;19795;53.160;6.612;2022-09-09T20:13:33;15.70;99.90
33460;DHT22;19795;53.160;6.612;2022-09-09T20:16:01;15.70;99.90
33460;DHT22;19795;53.160;6.612;2022-09-09T20:18:29;15.70;99.90
33460;DHT22;19795;53.160;6.612;2022-09-09T20:21:00;15.70;99.90
33460;DHT22;19795;53.160;6.612;2022-09-09T20:23:27;15.60;99.90
33460;DHT22;19795;53.160;6.612;2022-09-09T20:25:53;15.60;99.90
33460;DHT22;19795;53.160;6.612;2022-09-09T20:28:19;15.60;99.90
33460;DHT22;19795;53.160;6.612;2022-09-09T20:30:49;15.60;99.90
33460;DHT22;19795;53.160;6.612;2022-09-09T20:33:18;15.70;99.90
33460;DHT22;19795;53.160;6.612;2022-09-09T20:35:44;15.60;99.90
33460;DHT22;19795;53.160;6.612;2022-09-09T20:38:10;15.70;99.90
33460;DHT22;19795;53.160;6.612;2022-09-09T20:40:36;15.60;99.90
33460;DHT22;19795;53.160;6.612;2022-09-09T20:43:03;15.60;99.90
33460;DHT22;19795;53.160;6.612;2022-09-09T20:45:30;15.60;99.90
33460;DHT22;19795;53.160;6.612;2022-09-09T20:47:55;15.70;99.90
33460;DHT22;19795;53.160;6.612;2022-09-09T20:50:22;15.80;99.90
33460;DHT22;19795;53.160;6.612;2022-09-09T20:52:48;15.70;99.90
33460;DHT22;19795;53.160;6.612;2022-09-09T20:55:14;15.70;99.90
33460;DHT22;19795;53.160;6.612;2022-09-09T20:57:39;15.80;99.90
33460;DHT22;19795;53.160;6.612;2022-09-09T21:00:05;15.70;99.90
33460;DHT22;19795;53.160;6.612;2022-09-09T21:02:32;15.80;99.90
33460;DHT22;19795;53.160;6.612;2022-09-09T21:04:58;15.80;99.90